sensor_id;sensor_type;location;lat;lon;timestamp;P1;durP1;ratioP1;P2;durP2;ratioP2
36989;SDS011;22898;52.102;5.776;2023-08-06T00:02:20;4.00;;;2.58;;
36989;SDS011;22898;52.102;5.776;2023-08-06T00:04:46;3.50;;;2.42;;
36989;SDS011;22898;52.102;5.776;2023-08-06T00:07:11;4.20;;;2.67;;
36989;SDS011;22898;52.102;5.776;2023-08-06T00:09:37;7.03;;;2.38;;
36989;SDS011;22898;52.102;5.776;2023-08-06T00:12:03;3.40;;;2.17;;
36989;SDS011;22898;52.102;5.776;2023-08-06T00:14:29;4.78;;;2.55;;
36989;SDS011;22898;52.102;5.776;2023-08-06T00:16:54;4.10;;;2.20;;
36989;SDS011;22898;52.102;5.776;2023-08-06T00:19:20;3.78;;;2.25;;
36989;SDS011;22898;52.102;5.776;2023-08-06T00:21:45;2.92;;;1.88;;
36989;SDS011;22898;52.102;5.776;2023-08-06T00:24:11;3.03;;;2.15;;
36989;SDS011;22898;52.102;5.776;2023-08-06T00:26:36;6.10;;;2.65;;
36989;SDS011;22898;52.102;5.776;2023-08-06T00:29:03;4.43;;;2.08;;
36989;SDS011;22898;52.102;5.776;2023-08-06T00:31:28;3.47;;;1.80;;
36989;SDS011;22898;52.102;5.776;2023-08-06T00:33:54;4.45;;;2.35;;
36989;SDS011;22898;52.102;5.776;2023-08-06T00:36:19;3.03;;;2.35;;
36989;SDS011;22898;52.102;5.776;2023-08-06T00:38:45;4.97;;;2.60;;
36989;SDS011;22898;52.102;5.776;2023-08-06T00:41:10;4.07;;;2.15;;
36989;SDS011;22898;52.102;5.776;2023-08-06T00:43:36;4.97;;;2.22;;
36989;SDS011;22898;52.102;5.776;2023-08-06T00:46:03;2.42;;;1.85;;
36989;SDS011;22898;52.102;5.776;2023-08-06T00:48:29;3.50;;;2.20;;
36989;SDS011;22898;52.102;5.776;2023-08-06T00:50:54;3.03;;;2.08;;
36989;SDS011;22898;52.102;5.776;2023-08-06T00:53:20;2.75;;;2.03;;
36989;SDS011;22898;52.102;5.776;2023-08-06T00:55:46;6.10;;;4.15;;
36989;SDS011;22898;52.102;5.776;2023-08-06T00:58:12;5.28;;;3.30;;
36989;SDS011;22898;52.102;5.776;2023-08-06T01:00:39;4.63;;;2.17;;
36989;SDS011;22898;52.102;5.776;2023-08-06T01:03:04;2.83;;;1.75;;
36989;SDS011;22898;52.102;5.776;2023-08-06T01:05:30;3.10;;;1.98;;
36989;SDS011;22898;52.102;5.776;2023-08-06T01:08:01;3.17;;;2.25;;
36989;SDS011;22898;52.102;5.776;2023-08-06T01:11:00;2.75;;;1.65;;
36989;SDS011;22898;52.102;5.776;2023-08-06T01:13:51;3.38;;;2.22;;
36989;SDS011;22898;52.102;5.776;2023-08-06T01:16:23;2.70;;;1.87;;
36989;SDS011;22898;52.102;5.776;2023-08-06T01:18:50;2.53;;;1.98;;
36989;SDS011;22898;52.102;5.776;2023-08-06T01:21:15;3.38;;;2.10;;
36989;SDS011;22898;52.102;5.776;2023-08-06T01:23:42;4.50;;;2.08;;
36989;SDS011;22898;52.102;5.776;2023-08-06T01:26:19;2.58;;;1.73;;
36989;SDS011;22898;52.102;5.776;2023-08-06T01:29:19;5.22;;;2.45;;
36989;SDS011;22898;52.102;5.776;2023-08-06T01:32:04;5.60;;;2.35;;
36989;SDS011;22898;52.102;5.776;2023-08-06T01:34:31;3.58;;;1.92;;
36989;SDS011;22898;52.102;5.776;2023-08-06T01:36:59;3.55;;;2.25;;
36989;SDS011;22898;52.102;5.776;2023-08-06T01:39:26;4.47;;;3.10;;
36989;SDS011;22898;52.102;5.776;2023-08-06T01:41:51;3.30;;;2.20;;
36989;SDS011;22898;52.102;5.776;2023-08-06T01:44:18;4.72;;;2.50;;
36989;SDS011;22898;52.102;5.776;2023-08-06T01:46:43;3.90;;;2.63;;
36989;SDS011;22898;52.102;5.776;2023-08-06T01:49:09;3.10;;;2.17;;
36989;SDS011;22898;52.102;5.776;2023-08-06T01:51:35;2.88;;;1.95;;
36989;SDS011;22898;52.102;5.776;2023-08-06T01:54:00;3.63;;;2.45;;
36989;SDS011;22898;52.102;5.776;2023-08-06T01:56:26;3.78;;;2.10;;
36989;SDS011;22898;52.102;5.776;2023-08-06T01:58:51;1.92;;;1.42;;
36989;SDS011;22898;52.102;5.776;2023-08-06T02:01:17;4.07;;;2.75;;
36989;SDS011;22898;52.102;5.776;2023-08-06T02:03:42;6.75;;;2.05;;
36989;SDS011;22898;52.102;5.776;2023-08-06T02:06:08;1.85;;;1.40;;
36989;SDS011;22898;52.102;5.776;2023-08-06T02:08:34;2.80;;;1.95;;
36989;SDS011;22898;52.102;5.776;2023-08-06T02:10:59;1.73;;;1.42;;
36989;SDS011;22898;52.102;5.776;2023-08-06T02:13:25;2.17;;;1.77;;
36989;SDS011;22898;52.102;5.776;2023-08-06T02:15:50;4.00;;;1.83;;
36989;SDS011;22898;52.102;5.776;2023-08-06T02:18:16;3.25;;;1.80;;
36989;SDS011;22898;52.102;5.776;2023-08-06T02:20:42;2.50;;;1.55;;
36989;SDS011;22898;52.102;5.776;2023-08-06T02:23:08;5.85;;;2.17;;
36989;SDS011;22898;52.102;5.776;2023-08-06T02:25:34;10.65;;;1.58;;
36989;SDS011;22898;52.102;5.776;2023-08-06T02:28:00;2.13;;;1.67;;
36989;SDS011;22898;52.102;5.776;2023-08-06T02:30:25;4.45;;;2.33;;
36989;SDS011;22898;52.102;5.776;2023-08-06T02:32:51;4.00;;;2.00;;
36989;SDS011;22898;52.102;5.776;2023-08-06T02:35:16;1.95;;;1.67;;
36989;SDS011;22898;52.102;5.776;2023-08-06T02:37:42;3.17;;;2.13;;
36989;SDS011;22898;52.102;5.776;2023-08-06T02:40:08;1.90;;;1.60;;
36989;SDS011;22898;52.102;5.776;2023-08-06T02:42:33;2.42;;;1.83;;
36989;SDS011;22898;52.102;5.776;2023-08-06T02:44:59;2.90;;;2.10;;
36989;SDS011;22898;52.102;5.776;2023-08-06T02:47:24;3.60;;;2.42;;
36989;SDS011;22898;52.102;5.776;2023-08-06T02:49:50;5.47;;;1.95;;
36989;SDS011;22898;52.102;5.776;2023-08-06T02:52:16;3.10;;;2.10;;
36989;SDS011;22898;52.102;5.776;2023-08-06T02:54:42;3.38;;;2.20;;
36989;SDS011;22898;52.102;5.776;2023-08-06T02:57:07;3.13;;;2.17;;
36989;SDS011;22898;52.102;5.776;2023-08-06T02:59:33;3.75;;;2.55;;
36989;SDS011;22898;52.102;5.776;2023-08-06T03:01:58;3.45;;;2.35;;
36989;SDS011;22898;52.102;5.776;2023-08-06T03:04:24;3.47;;;2.20;;
36989;SDS011;22898;52.102;5.776;2023-08-06T03:06:50;2.42;;;1.70;;
36989;SDS011;22898;52.102;5.776;2023-08-06T03:09:16;2.30;;;1.92;;
36989;SDS011;22898;52.102;5.776;2023-08-06T03:11:42;2.47;;;1.70;;
36989;SDS011;22898;52.102;5.776;2023-08-06T03:14:07;4.25;;;2.65;;
36989;SDS011;22898;52.102;5.776;2023-08-06T03:16:33;3.17;;;2.08;;
36989;SDS011;22898;52.102;5.776;2023-08-06T03:18:59;3.60;;;1.90;;
36989;SDS011;22898;52.102;5.776;2023-08-06T03:21:25;3.17;;;1.70;;
36989;SDS011;22898;52.102;5.776;2023-08-06T03:23:50;3.30;;;2.13;;
36989;SDS011;22898;52.102;5.776;2023-08-06T03:26:16;1.98;;;1.33;;
36989;SDS011;22898;52.102;5.776;2023-08-06T03:28:41;2.00;;;1.52;;
36989;SDS011;22898;52.102;5.776;2023-08-06T03:31:07;2.47;;;1.60;;
36989;SDS011;22898;52.102;5.776;2023-08-06T03:33:33;1.83;;;1.42;;
36989;SDS011;22898;52.102;5.776;2023-08-06T03:35:58;2.33;;;1.50;;
36989;SDS011;22898;52.102;5.776;2023-08-06T03:38:24;1.70;;;1.30;;
36989;SDS011;22898;52.102;5.776;2023-08-06T03:40:49;4.22;;;1.70;;
36989;SDS011;22898;52.102;5.776;2023-08-06T03:43:15;3.13;;;1.42;;
36989;SDS011;22898;52.102;5.776;2023-08-06T03:45:41;2.20;;;1.63;;
36989;SDS011;22898;52.102;5.776;2023-08-06T03:48:07;1.63;;;1.20;;
36989;SDS011;22898;52.102;5.776;2023-08-06T03:50:33;1.65;;;1.27;;
36989;SDS011;22898;52.102;5.776;2023-08-06T03:52:58;1.42;;;1.33;;
36989;SDS011;22898;52.102;5.776;2023-08-06T03:55:24;2.17;;;1.50;;
36989;SDS011;22898;52.102;5.776;2023-08-06T03:57:50;1.65;;;1.10;;
36989;SDS011;22898;52.102;5.776;2023-08-06T04:00:15;2.30;;;1.42;;
36989;SDS011;22898;52.102;5.776;2023-08-06T04:02:41;2.33;;;1.52;;
36989;SDS011;22898;52.102;5.776;2023-08-06T04:05:07;1.88;;;1.45;;
36989;SDS011;22898;52.102;5.776;2023-08-06T04:07:33;1.30;;;0.95;;
36989;SDS011;22898;52.102;5.776;2023-08-06T04:09:59;2.63;;;1.70;;
36989;SDS011;22898;52.102;5.776;2023-08-06T04:12:26;2.08;;;1.58;;
36989;SDS011;22898;52.102;5.776;2023-08-06T04:14:52;1.83;;;1.27;;
36989;SDS011;22898;52.102;5.776;2023-08-06T04:17:19;1.50;;;1.35;;
36989;SDS011;22898;52.102;5.776;2023-08-06T04:19:49;1.10;;;1.00;;
36989;SDS011;22898;52.102;5.776;2023-08-06T04:22:16;1.15;;;1.08;;
36989;SDS011;22898;52.102;5.776;2023-08-06T04:24:42;2.13;;;1.30;;
36989;SDS011;22898;52.102;5.776;2023-08-06T04:27:08;2.13;;;1.35;;
36989;SDS011;22898;52.102;5.776;2023-08-06T04:29:34;1.30;;;1.08;;
36989;SDS011;22898;52.102;5.776;2023-08-06T04:32:01;2.45;;;2.10;;
36989;SDS011;22898;52.102;5.776;2023-08-06T04:34:26;2.97;;;1.35;;
36989;SDS011;22898;52.102;5.776;2023-08-06T04:36:52;2.63;;;1.70;;
36989;SDS011;22898;52.102;5.776;2023-08-06T04:39:18;4.72;;;2.05;;
36989;SDS011;22898;52.102;5.776;2023-08-06T04:41:43;2.80;;;1.30;;
36989;SDS011;22898;52.102;5.776;2023-08-06T04:44:09;1.55;;;1.38;;
36989;SDS011;22898;52.102;5.776;2023-08-06T04:46:35;2.35;;;1.42;;
36989;SDS011;22898;52.102;5.776;2023-08-06T04:49:00;2.67;;;1.58;;
36989;SDS011;22898;52.102;5.776;2023-08-06T04:51:26;2.00;;;1.42;;
36989;SDS011;22898;52.102;5.776;2023-08-06T04:53:51;2.17;;;1.55;;
36989;SDS011;22898;52.102;5.776;2023-08-06T04:56:17;3.17;;;1.33;;
36989;SDS011;22898;52.102;5.776;2023-08-06T04:58:43;2.42;;;1.88;;
36989;SDS011;22898;52.102;5.776;2023-08-06T05:01:08;3.28;;;1.73;;
36989;SDS011;22898;52.102;5.776;2023-08-06T05:03:34;2.15;;;1.67;;
36989;SDS011;22898;52.102;5.776;2023-08-06T05:06:00;2.00;;;1.48;;
36989;SDS011;22898;52.102;5.776;2023-08-06T05:08:25;3.05;;;2.03;;
36989;SDS011;22898;52.102;5.776;2023-08-06T05:10:51;2.28;;;1.83;;
36989;SDS011;22898;52.102;5.776;2023-08-06T05:13:16;3.75;;;2.03;;
36989;SDS011;22898;52.102;5.776;2023-08-06T05:15:42;3.50;;;1.90;;
36989;SDS011;22898;52.102;5.776;2023-08-06T05:18:10;3.20;;;2.42;;
36989;SDS011;22898;52.102;5.776;2023-08-06T05:20:37;3.70;;;1.80;;
36989;SDS011;22898;52.102;5.776;2023-08-06T05:23:06;4.32;;;2.72;;
36989;SDS011;22898;52.102;5.776;2023-08-06T05:25:34;3.90;;;1.88;;
36989;SDS011;22898;52.102;5.776;2023-08-06T05:28:00;3.67;;;2.72;;
36989;SDS011;22898;52.102;5.776;2023-08-06T05:30:26;4.05;;;2.95;;
36989;SDS011;22898;52.102;5.776;2023-08-06T05:32:52;3.10;;;1.75;;
36989;SDS011;22898;52.102;5.776;2023-08-06T05:35:18;4.10;;;2.38;;
36989;SDS011;22898;52.102;5.776;2023-08-06T05:37:43;3.42;;;2.25;;
36989;SDS011;22898;52.102;5.776;2023-08-06T05:40:09;5.25;;;3.33;;
36989;SDS011;22898;52.102;5.776;2023-08-06T05:42:35;4.75;;;3.15;;
36989;SDS011;22898;52.102;5.776;2023-08-06T05:45:00;6.85;;;2.80;;
36989;SDS011;22898;52.102;5.776;2023-08-06T05:47:26;4.50;;;3.33;;
36989;SDS011;22898;52.102;5.776;2023-08-06T05:49:51;3.97;;;3.10;;
36989;SDS011;22898;52.102;5.776;2023-08-06T05:52:17;5.78;;;3.25;;
36989;SDS011;22898;52.102;5.776;2023-08-06T05:54:43;6.93;;;2.67;;
36989;SDS011;22898;52.102;5.776;2023-08-06T05:57:08;7.43;;;3.72;;
36989;SDS011;22898;52.102;5.776;2023-08-06T05:59:34;4.93;;;2.70;;
36989;SDS011;22898;52.102;5.776;2023-08-06T06:01:59;3.47;;;2.53;;
36989;SDS011;22898;52.102;5.776;2023-08-06T06:04:25;5.40;;;2.92;;
36989;SDS011;22898;52.102;5.776;2023-08-06T06:06:50;6.47;;;3.55;;
36989;SDS011;22898;52.102;5.776;2023-08-06T06:09:16;8.35;;;4.28;;
36989;SDS011;22898;52.102;5.776;2023-08-06T06:11:41;6.22;;;3.70;;
36989;SDS011;22898;52.102;5.776;2023-08-06T06:14:07;7.22;;;3.80;;
36989;SDS011;22898;52.102;5.776;2023-08-06T06:16:33;5.70;;;3.28;;
36989;SDS011;22898;52.102;5.776;2023-08-06T06:18:59;6.68;;;4.60;;
36989;SDS011;22898;52.102;5.776;2023-08-06T06:21:24;9.07;;;4.10;;
36989;SDS011;22898;52.102;5.776;2023-08-06T06:23:50;4.63;;;3.35;;
36989;SDS011;22898;52.102;5.776;2023-08-06T06:26:16;7.30;;;3.90;;
36989;SDS011;22898;52.102;5.776;2023-08-06T06:28:43;7.28;;;3.83;;
36989;SDS011;22898;52.102;5.776;2023-08-06T06:31:08;7.45;;;3.58;;
36989;SDS011;22898;52.102;5.776;2023-08-06T06:33:34;8.50;;;3.20;;
36989;SDS011;22898;52.102;5.776;2023-08-06T06:36:00;5.32;;;3.60;;
36989;SDS011;22898;52.102;5.776;2023-08-06T06:38:28;8.27;;;3.67;;
36989;SDS011;22898;52.102;5.776;2023-08-06T06:40:57;5.35;;;2.97;;
36989;SDS011;22898;52.102;5.776;2023-08-06T06:43:23;5.15;;;3.45;;
36989;SDS011;22898;52.102;5.776;2023-08-06T06:45:52;6.35;;;3.80;;
36989;SDS011;22898;52.102;5.776;2023-08-06T06:48:19;6.18;;;3.08;;
36989;SDS011;22898;52.102;5.776;2023-08-06T06:50:47;6.60;;;2.90;;
36989;SDS011;22898;52.102;5.776;2023-08-06T06:53:13;7.10;;;3.95;;
36989;SDS011;22898;52.102;5.776;2023-08-06T06:55:39;4.72;;;2.95;;
36989;SDS011;22898;52.102;5.776;2023-08-06T06:58:04;4.85;;;3.58;;
36989;SDS011;22898;52.102;5.776;2023-08-06T07:00:30;8.15;;;4.38;;
36989;SDS011;22898;52.102;5.776;2023-08-06T07:02:55;5.22;;;2.95;;
36989;SDS011;22898;52.102;5.776;2023-08-06T07:05:21;6.15;;;3.33;;
36989;SDS011;22898;52.102;5.776;2023-08-06T07:07:47;5.63;;;3.30;;
36989;SDS011;22898;52.102;5.776;2023-08-06T07:10:12;6.65;;;3.67;;
36989;SDS011;22898;52.102;5.776;2023-08-06T07:12:38;6.40;;;3.88;;
36989;SDS011;22898;52.102;5.776;2023-08-06T07:15:05;4.97;;;3.28;;
36989;SDS011;22898;52.102;5.776;2023-08-06T07:17:31;5.47;;;2.67;;
36989;SDS011;22898;52.102;5.776;2023-08-06T07:19:57;4.63;;;3.00;;
36989;SDS011;22898;52.102;5.776;2023-08-06T07:22:22;5.05;;;3.00;;
36989;SDS011;22898;52.102;5.776;2023-08-06T07:24:48;7.05;;;3.30;;
36989;SDS011;22898;52.102;5.776;2023-08-06T07:27:13;5.63;;;3.22;;
36989;SDS011;22898;52.102;5.776;2023-08-06T07:29:39;4.57;;;2.92;;
36989;SDS011;22898;52.102;5.776;2023-08-06T07:32:06;5.28;;;2.78;;
36989;SDS011;22898;52.102;5.776;2023-08-06T07:34:32;3.83;;;2.67;;
36989;SDS011;22898;52.102;5.776;2023-08-06T07:36:57;5.72;;;2.90;;
36989;SDS011;22898;52.102;5.776;2023-08-06T07:39:23;4.40;;;2.88;;
36989;SDS011;22898;52.102;5.776;2023-08-06T07:41:49;5.22;;;2.85;;
36989;SDS011;22898;52.102;5.776;2023-08-06T07:44:14;4.03;;;2.38;;
36989;SDS011;22898;52.102;5.776;2023-08-06T07:46:40;5.30;;;3.65;;
36989;SDS011;22898;52.102;5.776;2023-08-06T07:49:06;4.65;;;2.38;;
36989;SDS011;22898;52.102;5.776;2023-08-06T07:51:32;5.35;;;2.72;;
36989;SDS011;22898;52.102;5.776;2023-08-06T07:53:58;4.68;;;2.72;;
36989;SDS011;22898;52.102;5.776;2023-08-06T07:56:23;3.97;;;2.47;;
36989;SDS011;22898;52.102;5.776;2023-08-06T07:58:49;6.68;;;3.42;;
36989;SDS011;22898;52.102;5.776;2023-08-06T08:01:15;3.90;;;2.75;;
36989;SDS011;22898;52.102;5.776;2023-08-06T08:03:40;5.00;;;2.67;;
36989;SDS011;22898;52.102;5.776;2023-08-06T08:06:06;4.32;;;2.75;;
36989;SDS011;22898;52.102;5.776;2023-08-06T08:08:32;3.90;;;2.00;;
36989;SDS011;22898;52.102;5.776;2023-08-06T08:10:57;3.08;;;2.30;;
36989;SDS011;22898;52.102;5.776;2023-08-06T08:13:25;4.32;;;2.78;;
36989;SDS011;22898;52.102;5.776;2023-08-06T08:15:56;4.28;;;2.40;;
36989;SDS011;22898;52.102;5.776;2023-08-06T08:18:22;3.70;;;2.70;;
36989;SDS011;22898;52.102;5.776;2023-08-06T08:20:47;4.70;;;2.20;;
36989;SDS011;22898;52.102;5.776;2023-08-06T08:23:13;4.85;;;2.25;;
36989;SDS011;22898;52.102;5.776;2023-08-06T08:25:38;2.25;;;1.88;;
36989;SDS011;22898;52.102;5.776;2023-08-06T08:28:04;4.38;;;2.83;;
36989;SDS011;22898;52.102;5.776;2023-08-06T08:30:30;2.47;;;2.05;;
36989;SDS011;22898;52.102;5.776;2023-08-06T08:32:55;3.55;;;2.30;;
36989;SDS011;22898;52.102;5.776;2023-08-06T08:35:21;4.18;;;2.30;;
36989;SDS011;22898;52.102;5.776;2023-08-06T08:37:46;3.80;;;2.58;;
36989;SDS011;22898;52.102;5.776;2023-08-06T08:40:13;2.80;;;2.08;;
36989;SDS011;22898;52.102;5.776;2023-08-06T08:42:40;2.75;;;2.08;;
36989;SDS011;22898;52.102;5.776;2023-08-06T08:45:06;3.30;;;2.10;;
36989;SDS011;22898;52.102;5.776;2023-08-06T08:47:38;3.15;;;2.00;;
36989;SDS011;22898;52.102;5.776;2023-08-06T08:50:08;3.47;;;2.30;;
36989;SDS011;22898;52.102;5.776;2023-08-06T08:52:36;2.88;;;1.65;;
36989;SDS011;22898;52.102;5.776;2023-08-06T08:55:04;2.92;;;1.65;;
36989;SDS011;22898;52.102;5.776;2023-08-06T08:57:31;4.10;;;2.00;;
36989;SDS011;22898;52.102;5.776;2023-08-06T08:59:57;2.60;;;1.83;;
36989;SDS011;22898;52.102;5.776;2023-08-06T09:02:22;2.92;;;1.77;;
36989;SDS011;22898;52.102;5.776;2023-08-06T09:04:50;2.50;;;1.90;;
36989;SDS011;22898;52.102;5.776;2023-08-06T09:07:19;2.38;;;1.70;;
36989;SDS011;22898;52.102;5.776;2023-08-06T09:09:46;3.00;;;2.25;;
36989;SDS011;22898;52.102;5.776;2023-08-06T09:12:15;4.35;;;2.60;;
36989;SDS011;22898;52.102;5.776;2023-08-06T09:14:41;2.92;;;1.95;;
36989;SDS011;22898;52.102;5.776;2023-08-06T09:17:07;4.45;;;2.45;;
36989;SDS011;22898;52.102;5.776;2023-08-06T09:19:35;5.32;;;3.20;;
36989;SDS011;22898;52.102;5.776;2023-08-06T09:22:01;5.65;;;3.15;;
36989;SDS011;22898;52.102;5.776;2023-08-06T09:24:27;4.65;;;2.85;;
36989;SDS011;22898;52.102;5.776;2023-08-06T09:26:53;5.88;;;3.70;;
36989;SDS011;22898;52.102;5.776;2023-08-06T09:29:19;5.25;;;3.33;;
36989;SDS011;22898;52.102;5.776;2023-08-06T09:31:49;8.73;;;4.50;;
36989;SDS011;22898;52.102;5.776;2023-08-06T09:34:19;6.22;;;4.13;;
36989;SDS011;22898;52.102;5.776;2023-08-06T09:36:50;6.93;;;4.60;;
36989;SDS011;22898;52.102;5.776;2023-08-06T09:39:18;6.22;;;3.65;;
36989;SDS011;22898;52.102;5.776;2023-08-06T09:41:45;7.65;;;4.45;;
36989;SDS011;22898;52.102;5.776;2023-08-06T09:44:17;6.88;;;3.97;;
36989;SDS011;22898;52.102;5.776;2023-08-06T09:46:50;9.85;;;4.55;;
36989;SDS011;22898;52.102;5.776;2023-08-06T09:49:20;6.78;;;4.55;;
36989;SDS011;22898;52.102;5.776;2023-08-06T09:51:50;7.90;;;5.05;;
36989;SDS011;22898;52.102;5.776;2023-08-06T09:54:17;11.35;;;5.70;;
36989;SDS011;22898;52.102;5.776;2023-08-06T09:56:45;9.95;;;5.40;;
36989;SDS011;22898;52.102;5.776;2023-08-06T09:59:12;7.25;;;5.07;;
36989;SDS011;22898;52.102;5.776;2023-08-06T10:01:38;8.57;;;5.00;;
36989;SDS011;22898;52.102;5.776;2023-08-06T10:04:04;7.05;;;4.38;;
36989;SDS011;22898;52.102;5.776;2023-08-06T10:06:35;7.95;;;5.20;;
36989;SDS011;22898;52.102;5.776;2023-08-06T10:09:02;9.38;;;5.57;;
36989;SDS011;22898;52.102;5.776;2023-08-06T10:11:30;11.82;;;5.88;;
36989;SDS011;22898;52.102;5.776;2023-08-06T10:14:12;8.35;;;4.78;;
36989;SDS011;22898;52.102;5.776;2023-08-06T10:16:41;7.50;;;3.65;;
36989;SDS011;22898;52.102;5.776;2023-08-06T10:19:09;2.38;;;1.42;;
36989;SDS011;22898;52.102;5.776;2023-08-06T10:21:39;0.95;;;0.85;;
36989;SDS011;22898;52.102;5.776;2023-08-06T10:24:08;0.80;;;0.60;;
36989;SDS011;22898;52.102;5.776;2023-08-06T10:26:37;0.35;;;0.35;;
36989;SDS011;22898;52.102;5.776;2023-08-06T10:29:34;0.52;;;0.45;;
36989;SDS011;22898;52.102;5.776;2023-08-06T10:32:04;0.75;;;0.60;;
36989;SDS011;22898;52.102;5.776;2023-08-06T10:37:34;0.75;;;0.52;;
36989;SDS011;22898;52.102;5.776;2023-08-06T10:40:01;0.45;;;0.45;;
36989;SDS011;22898;52.102;5.776;2023-08-06T10:42:28;1.13;;;0.90;;
36989;SDS011;22898;52.102;5.776;2023-08-06T10:47:40;0.55;;;0.55;;
36989;SDS011;22898;52.102;5.776;2023-08-06T10:50:07;0.52;;;0.50;;
36989;SDS011;22898;52.102;5.776;2023-08-06T10:52:39;0.38;;;0.35;;
36989;SDS011;22898;52.102;5.776;2023-08-06T10:55:05;0.90;;;0.52;;
36989;SDS011;22898;52.102;5.776;2023-08-06T10:57:31;0.60;;;0.50;;
36989;SDS011;22898;52.102;5.776;2023-08-06T10:59:56;0.63;;;0.57;;
36989;SDS011;22898;52.102;5.776;2023-08-06T11:02:22;0.40;;;0.40;;
36989;SDS011;22898;52.102;5.776;2023-08-06T11:04:48;1.00;;;0.73;;
36989;SDS011;22898;52.102;5.776;2023-08-06T11:07:14;0.30;;;0.30;;
36989;SDS011;22898;52.102;5.776;2023-08-06T11:09:40;0.50;;;0.50;;
36989;SDS011;22898;52.102;5.776;2023-08-06T11:12:11;0.73;;;0.70;;
36989;SDS011;22898;52.102;5.776;2023-08-06T11:14:43;0.60;;;0.47;;
36989;SDS011;22898;52.102;5.776;2023-08-06T11:17:15;0.65;;;0.52;;
36989;SDS011;22898;52.102;5.776;2023-08-06T11:19:40;1.35;;;1.10;;
36989;SDS011;22898;52.102;5.776;2023-08-06T11:22:06;1.27;;;0.95;;
36989;SDS011;22898;52.102;5.776;2023-08-06T11:24:32;0.88;;;0.77;;
36989;SDS011;22898;52.102;5.776;2023-08-06T11:26:57;1.13;;;0.73;;
36989;SDS011;22898;52.102;5.776;2023-08-06T11:29:23;0.95;;;0.85;;
36989;SDS011;22898;52.102;5.776;2023-08-06T11:31:49;0.80;;;0.80;;
36989;SDS011;22898;52.102;5.776;2023-08-06T11:34:15;0.88;;;0.75;;
36989;SDS011;22898;52.102;5.776;2023-08-06T11:36:41;3.30;;;1.55;;
36989;SDS011;22898;52.102;5.776;2023-08-06T11:39:07;1.33;;;1.17;;
36989;SDS011;22898;52.102;5.776;2023-08-06T11:41:35;4.72;;;1.30;;
36989;SDS011;22898;52.102;5.776;2023-08-06T11:44:03;1.85;;;1.08;;
36989;SDS011;22898;52.102;5.776;2023-08-06T11:46:29;1.73;;;1.30;;
36989;SDS011;22898;52.102;5.776;2023-08-06T11:48:55;1.27;;;1.08;;
36989;SDS011;22898;52.102;5.776;2023-08-06T11:51:25;1.33;;;0.90;;
36989;SDS011;22898;52.102;5.776;2023-08-06T11:53:57;1.67;;;1.23;;
36989;SDS011;22898;52.102;5.776;2023-08-06T11:56:23;3.60;;;1.98;;
36989;SDS011;22898;52.102;5.776;2023-08-06T11:58:50;2.70;;;1.55;;
36989;SDS011;22898;52.102;5.776;2023-08-06T12:01:15;2.08;;;1.70;;
36989;SDS011;22898;52.102;5.776;2023-08-06T12:03:41;1.80;;;1.27;;
36989;SDS011;22898;52.102;5.776;2023-08-06T12:06:07;1.63;;;1.15;;
36989;SDS011;22898;52.102;5.776;2023-08-06T12:08:32;2.15;;;1.67;;
36989;SDS011;22898;52.102;5.776;2023-08-06T12:10:58;1.33;;;1.23;;
36989;SDS011;22898;52.102;5.776;2023-08-06T12:13:24;3.25;;;1.98;;
36989;SDS011;22898;52.102;5.776;2023-08-06T12:15:50;1.85;;;1.50;;
36989;SDS011;22898;52.102;5.776;2023-08-06T12:18:17;2.45;;;1.73;;
36989;SDS011;22898;52.102;5.776;2023-08-06T12:20:43;0.90;;;0.80;;
36989;SDS011;22898;52.102;5.776;2023-08-06T12:23:09;1.52;;;1.42;;
36989;SDS011;22898;52.102;5.776;2023-08-06T12:25:34;1.92;;;1.40;;
36989;SDS011;22898;52.102;5.776;2023-08-06T12:28:00;3.00;;;1.63;;
36989;SDS011;22898;52.102;5.776;2023-08-06T12:30:26;2.25;;;1.33;;
36989;SDS011;22898;52.102;5.776;2023-08-06T12:32:52;2.95;;;1.65;;
36989;SDS011;22898;52.102;5.776;2023-08-06T12:35:17;7.00;;;1.75;;
36989;SDS011;22898;52.102;5.776;2023-08-06T12:37:43;0.85;;;0.82;;
36989;SDS011;22898;52.102;5.776;2023-08-06T12:40:10;1.55;;;1.17;;
36989;SDS011;22898;52.102;5.776;2023-08-06T12:42:36;3.30;;;2.17;;
36989;SDS011;22898;52.102;5.776;2023-08-06T12:45:01;1.33;;;1.00;;
36989;SDS011;22898;52.102;5.776;2023-08-06T12:47:27;1.35;;;0.90;;
36989;SDS011;22898;52.102;5.776;2023-08-06T12:49:53;1.90;;;1.38;;
36989;SDS011;22898;52.102;5.776;2023-08-06T12:52:18;1.38;;;1.20;;
36989;SDS011;22898;52.102;5.776;2023-08-06T12:54:45;0.95;;;0.93;;
36989;SDS011;22898;52.102;5.776;2023-08-06T12:57:11;1.67;;;1.20;;
36989;SDS011;22898;52.102;5.776;2023-08-06T12:59:37;4.70;;;1.10;;
36989;SDS011;22898;52.102;5.776;2023-08-06T13:02:04;2.95;;;2.13;;
36989;SDS011;22898;52.102;5.776;2023-08-06T13:04:30;1.23;;;1.00;;
36989;SDS011;22898;52.102;5.776;2023-08-06T13:06:56;1.95;;;1.58;;
36989;SDS011;22898;52.102;5.776;2023-08-06T13:09:21;2.65;;;1.73;;
36989;SDS011;22898;52.102;5.776;2023-08-06T13:11:48;2.58;;;1.40;;
36989;SDS011;22898;52.102;5.776;2023-08-06T13:14:15;1.15;;;1.05;;
36989;SDS011;22898;52.102;5.776;2023-08-06T13:16:41;2.63;;;1.38;;
36989;SDS011;22898;52.102;5.776;2023-08-06T13:19:08;3.00;;;1.30;;
36989;SDS011;22898;52.102;5.776;2023-08-06T13:21:35;2.30;;;2.10;;
36989;SDS011;22898;52.102;5.776;2023-08-06T13:24:21;2.53;;;1.90;;
36989;SDS011;22898;52.102;5.776;2023-08-06T13:26:46;2.83;;;1.95;;
36989;SDS011;22898;52.102;5.776;2023-08-06T13:29:12;3.95;;;2.30;;
36989;SDS011;22898;52.102;5.776;2023-08-06T13:31:38;2.05;;;1.65;;
36989;SDS011;22898;52.102;5.776;2023-08-06T13:34:03;1.67;;;1.10;;
36989;SDS011;22898;52.102;5.776;2023-08-06T13:36:29;2.35;;;1.23;;
36989;SDS011;22898;52.102;5.776;2023-08-06T13:38:56;1.58;;;1.25;;
36989;SDS011;22898;52.102;5.776;2023-08-06T13:41:21;1.35;;;1.02;;
36989;SDS011;22898;52.102;5.776;2023-08-06T13:43:47;2.13;;;1.40;;
36989;SDS011;22898;52.102;5.776;2023-08-06T13:46:13;1.20;;;1.10;;
36989;SDS011;22898;52.102;5.776;2023-08-06T13:48:43;2.58;;;1.13;;
36989;SDS011;22898;52.102;5.776;2023-08-06T13:51:12;1.15;;;1.00;;
36989;SDS011;22898;52.102;5.776;2023-08-06T13:53:39;5.43;;;1.30;;
36989;SDS011;22898;52.102;5.776;2023-08-06T13:56:05;2.85;;;1.33;;
36989;SDS011;22898;52.102;5.776;2023-08-06T13:58:32;1.30;;;1.00;;
36989;SDS011;22898;52.102;5.776;2023-08-06T14:00:58;2.85;;;1.48;;
36989;SDS011;22898;52.102;5.776;2023-08-06T14:03:24;1.55;;;1.27;;
36989;SDS011;22898;52.102;5.776;2023-08-06T14:05:50;2.25;;;1.40;;
36989;SDS011;22898;52.102;5.776;2023-08-06T14:08:16;1.48;;;1.25;;
36989;SDS011;22898;52.102;5.776;2023-08-06T14:10:44;1.40;;;1.15;;
36989;SDS011;22898;52.102;5.776;2023-08-06T14:13:10;1.52;;;1.05;;
36989;SDS011;22898;52.102;5.776;2023-08-06T14:15:36;2.50;;;1.75;;
36989;SDS011;22898;52.102;5.776;2023-08-06T14:18:05;1.50;;;1.40;;
36989;SDS011;22898;52.102;5.776;2023-08-06T14:20:33;1.38;;;1.10;;
36989;SDS011;22898;52.102;5.776;2023-08-06T14:22:59;3.30;;;1.63;;
36989;SDS011;22898;52.102;5.776;2023-08-06T14:25:24;2.40;;;1.73;;
36989;SDS011;22898;52.102;5.776;2023-08-06T14:27:50;1.00;;;0.90;;
36989;SDS011;22898;52.102;5.776;2023-08-06T14:30:16;3.83;;;2.58;;
36989;SDS011;22898;52.102;5.776;2023-08-06T14:32:41;3.17;;;1.42;;
36989;SDS011;22898;52.102;5.776;2023-08-06T14:35:07;1.80;;;1.40;;
36989;SDS011;22898;52.102;5.776;2023-08-06T14:37:33;1.25;;;1.10;;
36989;SDS011;22898;52.102;5.776;2023-08-06T14:39:58;1.58;;;1.35;;
36989;SDS011;22898;52.102;5.776;2023-08-06T14:42:24;2.22;;;1.73;;
36989;SDS011;22898;52.102;5.776;2023-08-06T14:44:49;2.60;;;2.15;;
36989;SDS011;22898;52.102;5.776;2023-08-06T14:47:16;3.22;;;1.45;;
36989;SDS011;22898;52.102;5.776;2023-08-06T14:49:41;1.67;;;1.58;;
36989;SDS011;22898;52.102;5.776;2023-08-06T14:52:07;3.22;;;1.50;;